sensor_id;sensor_type;location;lat;lon;timestamp;pressure;altitude;pressure_sealevel;temperature;humidity
49341;BME280;35209;51.050;13.678;2022-08-26T00:00:58;99816.63;;;20.47;100.00
49341;BME280;35209;51.050;13.678;2022-08-26T00:06:00;99811.34;;;20.34;100.00
49341;BME280;35209;51.050;13.678;2022-08-26T00:11:03;99809.31;;;20.38;100.00
49341;BME280;35209;51.050;13.678;2022-08-26T00:16:07;99806.38;;;20.30;100.00
49341;BME280;35209;51.050;13.678;2022-08-26T00:21:12;99809.25;;;20.51;100.00
49341;BME280;35209;51.050;13.678;2022-08-26T00:26:13;99797.47;;;20.18;100.00
49341;BME280;35209;51.050;13.678;2022-08-26T00:31:15;99800.94;;;20.07;100.00
49341;BME280;35209;51.050;13.678;2022-08-26T00:36:17;99799.25;;;20.06;100.00
49341;BME280;35209;51.050;13.678;2022-08-26T00:41:20;99793.31;;;20.14;100.00
49341;BME280;35209;51.050;13.678;2022-08-26T00:46:26;99788.59;;;20.17;100.00
49341;BME280;35209;51.050;13.678;2022-08-26T00:51:29;99786.56;;;20.21;100.00
49341;BME280;35209;51.050;13.678;2022-08-26T00:56:42;99788.09;;;20.12;100.00
49341;BME280;35209;51.050;13.678;2022-08-26T01:01:49;99783.25;;;20.17;100.00
49341;BME280;35209;51.050;13.678;2022-08-26T01:06:52;99780.00;;;19.90;100.00
49341;BME280;35209;51.050;13.678;2022-08-26T01:11:57;99776.53;;;19.77;100.00
49341;BME280;35209;51.050;13.678;2022-08-26T01:17:02;99771.84;;;19.80;100.00
49341;BME280;35209;51.050;13.678;2022-08-26T01:22:09;99771.44;;;19.98;100.00
49341;BME280;35209;51.050;13.678;2022-08-26T01:27:14;99778.16;;;19.79;100.00
49341;BME280;35209;51.050;13.678;2022-08-26T01:32:20;99767.63;;;19.89;100.00
49341;BME280;35209;51.050;13.678;2022-08-26T01:37:30;99764.81;;;19.79;100.00
49341;BME280;35209;51.050;13.678;2022-08-26T01:42:33;99769.72;;;19.73;100.00
49341;BME280;35209;51.050;13.678;2022-08-26T01:47:36;99773.81;;;19.89;100.00
49341;BME280;35209;51.050;13.678;2022-08-26T01:52:41;99775.53;;;19.67;100.00
49341;BME280;35209;51.050;13.678;2022-08-26T01:57:44;99772.88;;;19.54;100.00
49341;BME280;35209;51.050;13.678;2022-08-26T02:02:50;99779.59;;;19.47;100.00
49341;BME280;35209;51.050;13.678;2022-08-26T02:08:15;99778.88;;;19.45;100.00
49341;BME280;35209;51.050;13.678;2022-08-26T02:13:26;99783.06;;;19.73;100.00
49341;BME280;35209;51.050;13.678;2022-08-26T02:18:32;99777.56;;;19.63;100.00
49341;BME280;35209;51.050;13.678;2022-08-26T02:23:36;99780.25;;;19.50;100.00
49341;BME280;35209;51.050;13.678;2022-08-26T02:28:51;99781.72;;;19.54;100.00
49341;BME280;35209;51.050;13.678;2022-08-26T02:34:11;99776.59;;;19.51;100.00
49341;BME280;35209;51.050;13.678;2022-08-26T02:39:15;99778.69;;;19.35;100.00
49341;BME280;35209;51.050;13.678;2022-08-26T02:44:22;99773.22;;;19.49;100.00
49341;BME280;35209;51.050;13.678;2022-08-26T02:49:26;99777.28;;;19.42;100.00
49341;BME280;35209;51.050;13.678;2022-08-26T02:54:28;99769.56;;;19.26;100.00
49341;BME280;35209;51.050;13.678;2022-08-26T02:59:31;99766.34;;;19.21;100.00
49341;BME280;35209;51.050;13.678;2022-08-26T03:04:32;99770.69;;;19.35;100.00
49341;BME280;35209;51.050;13.678;2022-08-26T03:09:34;99768.94;;;19.10;100.00
49341;BME280;35209;51.050;13.678;2022-08-26T03:14:36;99768.50;;;19.03;100.00
49341;BME280;35209;51.050;13.678;2022-08-26T03:19:38;99762.56;;;19.00;100.00
49341;BME280;35209;51.050;13.678;2022-08-26T03:24:41;99761.69;;;19.12;100.00
49341;BME280;35209;51.050;13.678;2022-08-26T03:29:46;99754.56;;;19.12;100.00
49341;BME280;35209;51.050;13.678;2022-08-26T03:35:08;99759.75;;;19.14;100.00
49341;BME280;35209;51.050;13.678;2022-08-26T03:40:10;99748.56;;;19.22;100.00
49341;BME280;35209;51.050;13.678;2022-08-26T03:45:13;99744.09;;;19.22;100.00
49341;BME280;35209;51.050;13.678;2022-08-26T03:50:18;99745.75;;;18.99;100.00
49341;BME280;35209;51.050;13.678;2022-08-26T03:55:26;99749.25;;;18.87;100.00
49341;BME280;35209;51.050;13.678;2022-08-26T04:00:29;99752.91;;;18.86;100.00
49341;BME280;35209;51.050;13.678;2022-08-26T04:05:31;99748.28;;;18.88;100.00
49341;BME280;35209;51.050;13.678;2022-08-26T04:10:32;99744.16;;;18.84;100.00
49341;BME280;35209;51.050;13.678;2022-08-26T04:15:34;99738.09;;;18.82;100.00
49341;BME280;35209;51.050;13.678;2022-08-26T04:20:36;99745.00;;;18.84;100.00
49341;BME280;35209;51.050;13.678;2022-08-26T04:25:38;99744.66;;;19.02;100.00
49341;BME280;35209;51.050;13.678;2022-08-26T04:30:41;99748.69;;;19.07;100.00
49341;BME280;35209;51.050;13.678;2022-08-26T04:35:43;99751.25;;;19.09;100.00
49341;BME280;35209;51.050;13.678;2022-08-26T04:40:48;99755.75;;;19.08;100.00
49341;BME280;35209;51.050;13.678;2022-08-26T04:45:50;99744.13;;;18.97;100.00
49341;BME280;35209;51.050;13.678;2022-08-26T04:50:51;99744.97;;;18.97;100.00
49341;BME280;35209;51.050;13.678;2022-08-26T04:55:53;99751.81;;;18.88;100.00
49341;BME280;35209;51.050;13.678;2022-08-26T05:00:55;99739.88;;;18.94;100.00
49341;BME280;35209;51.050;13.678;2022-08-26T05:05:57;99752.75;;;19.13;100.00
49341;BME280;35209;51.050;13.678;2022-08-26T05:11:03;99744.44;;;19.05;100.00
49341;BME280;35209;51.050;13.678;2022-08-26T05:16:09;99751.69;;;19.03;100.00
49341;BME280;35209;51.050;13.678;2022-08-26T05:21:20;99752.75;;;19.13;100.00
49341;BME280;35209;51.050;13.678;2022-08-26T05:26:25;99753.97;;;19.20;100.00
49341;BME280;35209;51.050;13.678;2022-08-26T05:31:30;99748.78;;;19.19;100.00
49341;BME280;35209;51.050;13.678;2022-08-26T05:36:36;99751.31;;;19.20;100.00
49341;BME280;35209;51.050;13.678;2022-08-26T05:41:41;99752.16;;;19.21;100.00
49341;BME280;35209;51.050;13.678;2022-08-26T05:46:45;99742.16;;;19.24;100.00
49341;BME280;35209;51.050;13.678;2022-08-26T05:51:47;99753.22;;;19.31;100.00
49341;BME280;35209;51.050;13.678;2022-08-26T05:56:51;99748.94;;;19.41;100.00
49341;BME280;35209;51.050;13.678;2022-08-26T06:01:53;99751.66;;;19.52;100.00
49341;BME280;35209;51.050;13.678;2022-08-26T06:06:58;99747.56;;;19.59;100.00
49341;BME280;35209;51.050;13.678;2022-08-26T06:12:00;99750.94;;;19.74;100.00
49341;BME280;35209;51.050;13.678;2022-08-26T06:17:02;99759.63;;;19.89;100.00
49341;BME280;35209;51.050;13.678;2022-08-26T06:22:04;99760.00;;;20.20;100.00
49341;BME280;35209;51.050;13.678;2022-08-26T06:27:26;99759.88;;;20.21;100.00
49341;BME280;35209;51.050;13.678;2022-08-26T06:32:33;99765.88;;;20.47;100.00
49341;BME280;35209;51.050;13.678;2022-08-26T06:37:35;99760.72;;;20.57;100.00
49341;BME280;35209;51.050;13.678;2022-08-26T06:42:37;99752.22;;;21.19;100.00
49341;BME280;35209;51.050;13.678;2022-08-26T06:47:39;99750.84;;;21.58;97.38
49341;BME280;35209;51.050;13.678;2022-08-26T06:52:41;99756.44;;;21.99;92.75
49341;BME280;35209;51.050;13.678;2022-08-26T06:57:42;99754.56;;;22.10;92.59
49341;BME280;35209;51.050;13.678;2022-08-26T07:02:44;99748.31;;;22.21;90.89
49341;BME280;35209;51.050;13.678;2022-08-26T07:07:47;99742.63;;;22.35;89.93
49341;BME280;35209;51.050;13.678;2022-08-26T07:12:49;99757.78;;;22.67;87.25
49341;BME280;35209;51.050;13.678;2022-08-26T07:17:51;99753.50;;;22.85;87.46
49341;BME280;35209;51.050;13.678;2022-08-26T07:22:53;99747.25;;;23.06;84.83
49341;BME280;35209;51.050;13.678;2022-08-26T07:27:55;99754.06;;;23.20;82.87
49341;BME280;35209;51.050;13.678;2022-08-26T07:32:57;99752.59;;;22.96;85.54
49341;BME280;35209;51.050;13.678;2022-08-26T07:37:59;99747.22;;;23.46;83.11
49341;BME280;35209;51.050;13.678;2022-08-26T07:43:02;99752.75;;;23.54;83.77
49341;BME280;35209;51.050;13.678;2022-08-26T07:48:04;99737.03;;;24.00;79.15
49341;BME280;35209;51.050;13.678;2022-08-26T07:53:06;99737.16;;;23.98;78.92
49341;BME280;35209;51.050;13.678;2022-08-26T07:58:11;99731.78;;;23.98;80.75
49341;BME280;35209;51.050;13.678;2022-08-26T08:03:13;99724.84;;;24.44;79.55
49341;BME280;35209;51.050;13.678;2022-08-26T08:08:15;99726.59;;;24.73;76.77
49341;BME280;35209;51.050;13.678;2022-08-26T08:13:28;99720.53;;;24.71;76.15
49341;BME280;35209;51.050;13.678;2022-08-26T08:18:30;99715.16;;;25.08;74.61
49341;BME280;35209;51.050;13.678;2022-08-26T08:23:32;99710.59;;;25.81;71.26
49341;BME280;35209;51.050;13.678;2022-08-26T08:28:35;99709.47;;;25.74;69.96
49341;BME280;35209;51.050;13.678;2022-08-26T08:33:37;99702.94;;;26.12;68.42
49341;BME280;35209;51.050;13.678;2022-08-26T08:38:39;99695.72;;;26.39;66.17
49341;BME280;35209;51.050;13.678;2022-08-26T08:43:44;99693.59;;;26.25;69.31
49341;BME280;35209;51.050;13.678;2022-08-26T08:48:54;99688.19;;;25.99;68.68
49341;BME280;35209;51.050;13.678;2022-08-26T08:54:00;99679.16;;;26.34;68.14
49341;BME280;35209;51.050;13.678;2022-08-26T08:59:17;99684.28;;;26.63;67.30
49341;BME280;35209;51.050;13.678;2022-08-26T09:09:58;99681.03;;;27.28;64.35
49341;BME280;35209;51.050;13.678;2022-08-26T09:15:05;99665.44;;;28.05;62.44
49341;BME280;35209;51.050;13.678;2022-08-26T09:21:04;99667.47;;;28.03;61.23
49341;BME280;35209;51.050;13.678;2022-08-26T09:25:48;99670.31;;;28.01;60.16
49341;BME280;35209;51.050;13.678;2022-08-26T09:31:12;99658.84;;;27.75;60.42
49341;BME280;35209;51.050;13.678;2022-08-26T09:36:17;99656.38;;;27.31;63.87
49341;BME280;35209;51.050;13.678;2022-08-26T09:41:31;99665.53;;;26.96;66.41
49341;BME280;35209;51.050;13.678;2022-08-26T09:46:33;99660.22;;;26.78;66.75
49341;BME280;35209;51.050;13.678;2022-08-26T09:51:36;99671.09;;;26.60;67.82
49341;BME280;35209;51.050;13.678;2022-08-26T09:56:38;99648.19;;;26.38;68.50
49341;BME280;35209;51.050;13.678;2022-08-26T10:01:41;99657.63;;;26.08;70.37
49341;BME280;35209;51.050;13.678;2022-08-26T10:07:05;99648.47;;;26.01;72.26
49341;BME280;35209;51.050;13.678;2022-08-26T10:12:15;99638.09;;;25.88;73.06
49341;BME280;35209;51.050;13.678;2022-08-26T10:17:21;99633.66;;;25.79;74.84
49341;BME280;35209;51.050;13.678;2022-08-26T10:22:43;99639.34;;;25.58;77.55
49341;BME280;35209;51.050;13.678;2022-08-26T10:27:59;99638.28;;;25.51;79.23
49341;BME280;35209;51.050;13.678;2022-08-26T10:33:09;99623.91;;;25.78;79.96
49341;BME280;35209;51.050;13.678;2022-08-26T10:38:15;99612.09;;;25.97;75.01
49341;BME280;35209;51.050;13.678;2022-08-26T10:43:24;99596.03;;;26.13;75.15
49341;BME280;35209;51.050;13.678;2022-08-26T10:48:53;99586.38;;;26.62;70.90
49341;BME280;35209;51.050;13.678;2022-08-26T10:59:33;99593.50;;;28.12;67.23
49341;BME280;35209;51.050;13.678;2022-08-26T11:04:57;99599.63;;;29.01;61.75
49341;BME280;35209;51.050;13.678;2022-08-26T11:20:37;99587.47;;;29.88;55.93
49341;BME280;35209;51.050;13.678;2022-08-26T11:31:04;99580.31;;;29.73;57.53
49341;BME280;35209;51.050;13.678;2022-08-26T11:36:10;99566.50;;;29.68;58.61
49341;BME280;35209;51.050;13.678;2022-08-26T11:41:27;99549.16;;;29.08;60.13
49341;BME280;35209;51.050;13.678;2022-08-26T11:46:31;99538.56;;;29.44;60.65
49341;BME280;35209;51.050;13.678;2022-08-26T11:51:37;99526.72;;;30.12;56.48
49341;BME280;35209;51.050;13.678;2022-08-26T11:56:44;99503.47;;;30.18;55.52
49341;BME280;35209;51.050;13.678;2022-08-26T12:01:49;99506.03;;;30.20;54.89
49341;BME280;35209;51.050;13.678;2022-08-26T12:06:51;99491.91;;;30.24;52.76
49341;BME280;35209;51.050;13.678;2022-08-26T12:12:14;99491.06;;;30.96;52.27
49341;BME280;35209;51.050;13.678;2022-08-26T12:17:25;99485.53;;;31.04;50.50
49341;BME280;35209;51.050;13.678;2022-08-26T12:22:29;99489.00;;;31.20;49.02
49341;BME280;35209;51.050;13.678;2022-08-26T12:27:36;99483.31;;;31.36;46.50
49341;BME280;35209;51.050;13.678;2022-08-26T12:32:49;99483.56;;;31.20;49.44
49341;BME280;35209;51.050;13.678;2022-08-26T12:37:58;99480.25;;;30.45;48.90
49341;BME280;35209;51.050;13.678;2022-08-26T12:43:03;99480.97;;;30.54;46.76
49341;BME280;35209;51.050;13.678;2022-08-26T12:48:06;99481.16;;;30.16;47.20
49341;BME280;35209;51.050;13.678;2022-08-26T13:08:38;99463.22;;;30.87;44.70
49341;BME280;35209;51.050;13.678;2022-08-26T13:13:40;99456.44;;;30.98;45.01
49341;BME280;35209;51.050;13.678;2022-08-26T13:18:42;99447.28;;;30.78;45.56
49341;BME280;35209;51.050;13.678;2022-08-26T13:23:44;99438.97;;;30.64;45.24
49341;BME280;35209;51.050;13.678;2022-08-26T13:28:47;99447.66;;;30.75;44.15
49341;BME280;35209;51.050;13.678;2022-08-26T13:34:03;99457.66;;;30.38;45.22
49341;BME280;35209;51.050;13.678;2022-08-26T13:39:05;99472.25;;;30.22;46.00
49341;BME280;35209;51.050;13.678;2022-08-26T13:44:07;99474.66;;;30.32;46.08
49341;BME280;35209;51.050;13.678;2022-08-26T13:49:09;99471.06;;;30.25;44.82
49341;BME280;35209;51.050;13.678;2022-08-26T13:54:11;99471.59;;;30.05;44.64
49341;BME280;35209;51.050;13.678;2022-08-26T13:59:12;99470.19;;;29.65;47.39
49341;BME280;35209;51.050;13.678;2022-08-26T14:04:14;99450.00;;;28.92;50.35
49341;BME280;35209;51.050;13.678;2022-08-26T14:09:23;99466.31;;;28.13;52.25
49341;BME280;35209;51.050;13.678;2022-08-26T14:14:25;99455.31;;;27.67;54.20
49341;BME280;35209;51.050;13.678;2022-08-26T14:19:28;99450.06;;;27.58;53.72
49341;BME280;35209;51.050;13.678;2022-08-26T14:24:30;99434.06;;;27.48;55.69
49341;BME280;35209;51.050;13.678;2022-08-26T14:29:32;99434.38;;;27.78;55.03
49341;BME280;35209;51.050;13.678;2022-08-26T14:34:33;99432.25;;;27.96;53.06
49341;BME280;35209;51.050;13.678;2022-08-26T14:39:35;99439.53;;;27.96;53.44
49341;BME280;35209;51.050;13.678;2022-08-26T14:44:40;99424.00;;;28.29;53.10
49341;BME280;35209;51.050;13.678;2022-08-26T14:49:43;99420.16;;;28.23;51.21
49341;BME280;35209;51.050;13.678;2022-08-26T14:54:45;99404.47;;;28.19;53.62
49341;BME280;35209;51.050;13.678;2022-08-26T14:59:47;99416.00;;;28.12;51.92
49341;BME280;35209;51.050;13.678;2022-08-26T15:04:50;99397.63;;;28.39;51.49
49341;BME280;35209;51.050;13.678;2022-08-26T15:09:52;99390.00;;;28.11;51.48
49341;BME280;35209;51.050;13.678;2022-08-26T15:14:54;99410.06;;;28.17;51.30
49341;BME280;35209;51.050;13.678;2022-08-26T15:19:56;99421.09;;;28.07;52.67
49341;BME280;35209;51.050;13.678;2022-08-26T15:24:58;99427.63;;;28.13;50.65
49341;BME280;35209;51.050;13.678;2022-08-26T15:30:08;99426.88;;;28.27;50.23
49341;BME280;35209;51.050;13.678;2022-08-26T15:35:10;99433.91;;;28.45;48.41
49341;BME280;35209;51.050;13.678;2022-08-26T15:40:12;99431.84;;;28.15;50.10
49341;BME280;35209;51.050;13.678;2022-08-26T15:45:14;99419.66;;;28.20;49.08
49341;BME280;35209;51.050;13.678;2022-08-26T15:50:27;99426.16;;;28.02;49.71
49341;BME280;35209;51.050;13.678;2022-08-26T15:55:29;99443.16;;;27.63;52.35
49341;BME280;35209;51.050;13.678;2022-08-26T16:00:31;99452.75;;;27.58;53.63
49341;BME280;35209;51.050;13.678;2022-08-26T16:05:37;99447.25;;;27.43;53.10
49341;BME280;35209;51.050;13.678;2022-08-26T16:10:42;99457.69;;;27.54;54.08
49341;BME280;35209;51.050;13.678;2022-08-26T16:15:50;99465.63;;;27.39;54.97
49341;BME280;35209;51.050;13.678;2022-08-26T16:20:54;99463.59;;;27.01;55.55
49341;BME280;35209;51.050;13.678;2022-08-26T16:26:22;99460.03;;;27.00;56.52
49341;BME280;35209;51.050;13.678;2022-08-26T16:31:24;99466.63;;;27.06;56.54
49341;BME280;35209;51.050;13.678;2022-08-26T16:36:26;99458.06;;;27.10;56.29
49341;BME280;35209;51.050;13.678;2022-08-26T16:41:29;99447.41;;;26.92;56.99
49341;BME280;35209;51.050;13.678;2022-08-26T16:46:34;99430.91;;;26.79;58.10
49341;BME280;35209;51.050;13.678;2022-08-26T16:51:36;99424.63;;;26.54;59.39
49341;BME280;35209;51.050;13.678;2022-08-26T16:56:38;99433.91;;;26.68;57.58
49341;BME280;35209;51.050;13.678;2022-08-26T17:01:40;99443.63;;;26.45;58.57
49341;BME280;35209;51.050;13.678;2022-08-26T17:06:42;99429.53;;;26.08;60.36
49341;BME280;35209;51.050;13.678;2022-08-26T17:11:44;99435.28;;;25.79;62.03
49341;BME280;35209;51.050;13.678;2022-08-26T17:16:46;99446.09;;;25.61;62.10
49341;BME280;35209;51.050;13.678;2022-08-26T17:21:51;99453.00;;;25.38;62.60
49341;BME280;35209;51.050;13.678;2022-08-26T17:26:52;99437.94;;;25.19;62.87
49341;BME280;35209;51.050;13.678;2022-08-26T17:31:56;99417.56;;;24.99;62.93
49341;BME280;35209;51.050;13.678;2022-08-26T17:36:57;99425.38;;;24.92;63.73
49341;BME280;35209;51.050;13.678;2022-08-26T17:41:59;99414.41;;;24.85;64.76
49341;BME280;35209;51.050;13.678;2022-08-26T17:47:01;99393.59;;;24.87;65.09
49341;BME280;35209;51.050;13.678;2022-08-26T17:52:03;99381.09;;;24.42;67.08
49341;BME280;35209;51.050;13.678;2022-08-26T17:57:11;99399.53;;;24.55;66.51
49341;BME280;35209;51.050;13.678;2022-08-26T18:02:13;99412.78;;;24.39;67.95
49341;BME280;35209;51.050;13.678;2022-08-26T18:07:15;99418.59;;;24.62;66.88
49341;BME280;35209;51.050;13.678;2022-08-26T18:12:17;99418.16;;;24.39;68.23
49341;BME280;35209;51.050;13.678;2022-08-26T18:17:19;99431.53;;;24.21;70.12
49341;BME280;35209;51.050;13.678;2022-08-26T18:22:20;99437.63;;;24.23;69.97
49341;BME280;35209;51.050;13.678;2022-08-26T18:27:23;99433.72;;;24.17;70.48
49341;BME280;35209;51.050;13.678;2022-08-26T18:32:25;99430.59;;;24.12;74.41
49341;BME280;35209;51.050;13.678;2022-08-26T18:37:27;99444.91;;;23.76;78.37
49341;BME280;35209;51.050;13.678;2022-08-26T18:42:32;99480.09;;;23.63;81.05
49341;BME280;35209;51.050;13.678;2022-08-26T18:47:34;99489.41;;;23.59;88.42
49341;BME280;35209;51.050;13.678;2022-08-26T18:52:36;99481.75;;;23.07;92.72
49341;BME280;35209;51.050;13.678;2022-08-26T18:57:38;99491.47;;;22.99;94.36
49341;BME280;35209;51.050;13.678;2022-08-26T19:02:40;99488.81;;;22.99;97.95
49341;BME280;35209;51.050;13.678;2022-08-26T19:07:47;99474.41;;;22.90;99.44
49341;BME280;35209;51.050;13.678;2022-08-26T19:12:49;99475.53;;;22.97;99.41
49341;BME280;35209;51.050;13.678;2022-08-26T19:17:52;99485.53;;;22.76;100.00
49341;BME280;35209;51.050;13.678;2022-08-26T19:22:54;99467.31;;;22.70;99.10
49341;BME280;35209;51.050;13.678;2022-08-26T19:28:02;99471.41;;;22.83;99.10
49341;BME280;35209;51.050;13.678;2022-08-26T19:33:07;99465.63;;;22.69;100.00
49341;BME280;35209;51.050;13.678;2022-08-26T19:38:09;99464.19;;;22.64;100.00
49341;BME280;35209;51.050;13.678;2022-08-26T19:43:11;99486.47;;;22.46;100.00
49341;BME280;35209;51.050;13.678;2022-08-26T19:48:14;99489.72;;;22.49;100.00
49341;BME280;35209;51.050;13.678;2022-08-26T19:53:16;99476.84;;;22.33;100.00
49341;BME280;35209;51.050;13.678;2022-08-26T19:58:19;99461.34;;;22.37;100.00
49341;BME280;35209;51.050;13.678;2022-08-26T20:03:23;99446.41;;;22.44;100.00
49341;BME280;35209;51.050;13.678;2022-08-26T20:08:24;99433.31;;;22.31;100.00
49341;BME280;35209;51.050;13.678;2022-08-26T20:13:27;99413.09;;;22.17;100.00
49341;BME280;35209;51.050;13.678;2022-08-26T20:18:29;99428.91;;;22.40;100.00
49341;BME280;35209;51.050;13.678;2022-08-26T20:23:49;99450.31;;;22.30;100.00
49341;BME280;35209;51.050;13.678;2022-08-26T20:28:52;99457.00;;;22.05;100.00
49341;BME280;35209;51.050;13.678;2022-08-26T20:33:54;99474.19;;;22.03;100.00
49341;BME280;35209;51.050;13.678;2022-08-26T20:38:56;99478.91;;;21.89;100.00
49341;BME280;35209;51.050;13.678;2022-08-26T20:43:58;99479.91;;;21.88;100.00
49341;BME280;35209;51.050;13.678;2022-08-26T20:49:01;99466.94;;;21.84;100.00
49341;BME280;35209;51.050;13.678;2022-08-26T20:54:06;99470.66;;;21.72;100.00
49341;BME280;35209;51.050;13.678;2022-08-26T20:59:08;99470.63;;;21.62;100.00
49341;BME280;35209;51.050;13.678;2022-08-26T21:04:13;99472.53;;;21.81;100.00
49341;BME280;35209;51.050;13.678;2022-08-26T21:09:16;99472.13;;;21.55;100.00
49341;BME280;35209;51.050;13.678;2022-08-26T21:14:19;99476.88;;;21.51;100.00
49341;BME280;35209;51.050;13.678;2022-08-26T21:19:26;99481.31;;;21.41;100.00
49341;BME280;35209;51.050;13.678;2022-08-26T21:24:27;99479.19;;;21.35;100.00
49341;BME280;35209;51.050;13.678;2022-08-26T21:29:29;99483.41;;;21.37;100.00
49341;BME280;35209;51.050;13.678;2022-08-26T21:34:31;99481.97;;;21.54;100.00
49341;BME280;35209;51.050;13.678;2022-08-26T21:39:32;99481.31;;;21.62;100.00
49341;BME280;35209;51.050;13.678;2022-08-26T21:44:34;99470.88;;;21.59;100.00
49341;BME280;35209;51.050;13.678;2022-08-26T21:49:36;99467.13;;;21.40;100.00
49341;BME280;35209;51.050;13.678;2022-08-26T21:54:38;99472.16;;;21.34;100.00
49341;BME280;35209;51.050;13.678;2022-08-26T21:59:39;99453.78;;;21.29;100.00
49341;BME280;35209;51.050;13.678;2022-08-26T22:04:41;99440.44;;;21.08;100.00
49341;BME280;35209;51.050;13.678;2022-08-26T22:09:48;99429.78;;;20.97;100.00
49341;BME280;35209;51.050;13.678;2022-08-26T22:14:50;99429.94;;;20.96;100.00
49341;BME280;35209;51.050;13.678;2022-08-26T22:19:52;99444.09;;;21.07;100.00
49341;BME280;35209;51.050;13.678;2022-08-26T22:24:54;99451.63;;;21.02;100.00
49341;BME280;35209;51.050;13.678;2022-08-26T22:29:56;99444.13;;;20.96;100.00
49341;BME280;35209;51.050;13.678;2022-08-26T22:34:58;99450.59;;;21.14;100.00
49341;BME280;35209;51.050;13.678;2022-08-26T22:39:59;99448.56;;;21.07;100.00
49341;BME280;35209;51.050;13.678;2022-08-26T22:45:02;99442.66;;;21.03;100.00
49341;BME280;35209;51.050;13.678;2022-08-26T22:50:07;99448.09;;;21.02;100.00
49341;BME280;35209;51.050;13.678;2022-08-26T22:55:09;99451.22;;;20.86;100.00
49341;BME280;35209;51.050;13.678;2022-08-26T23:00:11;99456.81;;;20.83;100.00
49341;BME280;35209;51.050;13.678;2022-08-26T23:05:15;99461.84;;;20.76;100.00
49341;BME280;35209;51.050;13.678;2022-08-26T23:10:16;99465.81;;;20.82;100.00
49341;BME280;35209;51.050;13.678;2022-08-26T23:15:19;99471.31;;;21.01;100.00
49341;BME280;35209;51.050;13.678;2022-08-26T23:20:21;99462.97;;;20.95;100.00
49341;BME280;35209;51.050;13.678;2022-08-26T23:25:23;99468.34;;;20.83;100.00
49341;BME280;35209;51.050;13.678;2022-08-26T23:30:26;99479.66;;;20.76;100.00
49341;BME280;35209;51.050;13.678;2022-08-26T23:35:28;99482.03;;;20.58;100.00
49341;BME280;35209;51.050;13.678;2022-08-26T23:40:33;99489.03;;;20.81;100.00
49341;BME280;35209;51.050;13.678;2022-08-26T23:45:35;99496.28;;;20.79;100.00
49341;BME280;35209;51.050;13.678;2022-08-26T23:50:37;99505.31;;;20.67;100.00
49341;BME280;35209;51.050;13.678;2022-08-26T23:55:57;99506.88;;;20.70;100.00
